createdAt,value
2023-04-01T00:00:10.814Z,6.20
2023-04-01T00:02:41.771Z,6.20
2023-04-01T00:05:11.405Z,6.10
2023-04-01T00:07:39.597Z,6.10
2023-04-01T00:10:09.442Z,6.10
2023-04-01T00:12:37.255Z,6.20
2023-04-01T00:15:05.982Z,6.20
2023-04-01T00:17:33.743Z,6.20
2023-04-01T00:20:01.505Z,6.20
2023-04-01T00:22:28.650Z,6.20
2023-04-01T00:24:56.062Z,6.20
2023-04-01T00:27:23.327Z,6.30
2023-04-01T00:29:50.397Z,6.30
2023-04-01T00:32:17.770Z,6.30
2023-04-01T00:34:45.630Z,6.20
2023-04-01T00:37:13.188Z,6.20
2023-04-01T00:39:40.509Z,6.20
2023-04-01T00:42:07.764Z,6.20
2023-04-01T00:44:35.812Z,6.30
2023-04-01T00:47:03.042Z,6.30
2023-04-01T00:49:38.851Z,6.30
2023-04-01T00:52:08.860Z,6.30
2023-04-01T00:54:37.242Z,6.30
2023-04-01T00:57:16.872Z,6.30
2023-04-01T00:59:48.981Z,6.30
2023-04-01T01:02:17.085Z,6.20
2023-04-01T01:04:44.233Z,6.20
2023-04-01T01:07:29.518Z,6.10
2023-04-01T01:10:16.887Z,6.10
2023-04-01T01:13:07.529Z,6.10
2023-04-01T01:15:39.434Z,6.10
2023-04-01T01:18:18.153Z,6.10
2023-04-01T01:21:07.080Z,6.10
2023-04-01T01:24:12.044Z,6.00
2023-04-01T01:26:56.306Z,6.00
2023-04-01T01:29:51.642Z,5.90
2023-04-01T01:32:43.729Z,6.00
2023-04-01T01:35:36.650Z,6.00
2023-04-01T01:38:14.758Z,6.00
2023-04-01T01:40:49.004Z,6.10
2023-04-01T01:43:21.685Z,6.00
2023-04-01T01:45:55.573Z,6.00
2023-04-01T01:48:24.626Z,6.00
2023-04-01T01:50:53.061Z,6.00
2023-04-01T01:53:21.488Z,6.00
2023-04-01T01:55:49.331Z,6.00
2023-04-01T01:58:18.241Z,6.00
2023-04-01T02:00:51.757Z,6.00
2023-04-01T02:03:22.455Z,6.10
2023-04-01T02:05:53.194Z,6.10
2023-04-01T02:08:27.944Z,6.10
2023-04-01T02:11:04.967Z,6.00
2023-04-01T02:13:58.169Z,6.00
2023-04-01T02:16:32.997Z,6.10
2023-04-01T02:19:02.789Z,6.10
2023-04-01T02:21:33.533Z,6.10
2023-04-01T02:24:04.202Z,6.10
2023-04-01T02:26:31.985Z,6.10
2023-04-01T02:29:02.158Z,6.10
2023-04-01T02:31:29.760Z,6.10
2023-04-01T02:33:58.447Z,6.10
2023-04-01T02:36:25.845Z,6.10
2023-04-01T02:38:55.801Z,6.10
2023-04-01T02:41:23.046Z,6.00
2023-04-01T02:43:50.339Z,6.00
2023-04-01T02:46:17.792Z,6.00
2023-04-01T02:48:45.012Z,6.00
2023-04-01T02:51:12.263Z,6.00
2023-04-01T02:53:39.896Z,6.00
2023-04-01T02:56:07.067Z,6.00
2023-04-01T02:58:34.325Z,6.10
2023-04-01T03:01:01.589Z,6.10
2023-04-01T03:03:28.787Z,6.10
2023-04-01T03:05:59.741Z,6.10
2023-04-01T03:08:26.919Z,6.10
2023-04-01T03:10:54.145Z,6.10
2023-04-01T03:13:21.721Z,6.10
2023-04-01T03:15:49.674Z,6.10
2023-04-01T03:18:16.969Z,6.10
2023-04-01T03:20:44.363Z,6.10
2023-04-01T03:23:11.617Z,6.20
2023-04-01T03:25:39.788Z,6.20
2023-04-01T03:28:07.106Z,6.20
2023-04-01T03:30:34.799Z,6.20
2023-04-01T03:33:02.837Z,6.20
2023-04-01T03:35:32.307Z,6.20
2023-04-01T03:37:59.640Z,6.20
2023-04-01T03:40:27.631Z,6.20
2023-04-01T03:42:54.936Z,6.20
2023-04-01T03:45:22.760Z,6.30
2023-04-01T03:47:50.281Z,6.30
2023-04-01T03:50:17.592Z,6.20
2023-04-01T03:52:44.874Z,6.20
2023-04-01T03:55:12.601Z,6.20
2023-04-01T03:57:40.670Z,6.20
2023-04-01T04:00:16.618Z,6.20
2023-04-01T04:02:46.573Z,6.30
2023-04-01T04:05:18.723Z,6.30
2023-04-01T04:07:45.915Z,6.30
2023-04-01T04:10:13.033Z,6.30
2023-04-01T04:12:41.505Z,6.40
2023-04-01T04:15:09.741Z,6.40
2023-04-01T04:17:37.156Z,6.40
2023-04-01T04:20:04.735Z,6.40
2023-04-01T04:22:32.032Z,6.40
2023-04-01T04:24:59.643Z,6.40
2023-04-01T04:27:26.861Z,6.30
2023-04-01T04:30:02.825Z,6.30
2023-04-01T04:32:31.748Z,6.30
2023-04-01T04:34:59.012Z,6.30
2023-04-01T04:37:26.950Z,6.30
2023-04-01T04:39:54.460Z,6.30
2023-04-01T04:42:21.768Z,6.30
2023-04-01T04:44:50.091Z,6.30
2023-04-01T04:47:17.532Z,6.20
2023-04-01T04:49:44.832Z,6.20
2023-04-01T04:52:12.012Z,6.20
2023-04-01T04:54:39.162Z,6.20
2023-04-01T04:57:06.597Z,6.20
2023-04-01T04:59:40.248Z,6.20
2023-04-01T05:02:14.151Z,6.20
2023-04-01T05:04:41.345Z,6.20
2023-04-01T05:07:10.960Z,6.20
2023-04-01T05:09:38.131Z,6.20
2023-04-01T05:12:05.964Z,6.10
2023-04-01T05:14:56.395Z,6.10
2023-04-01T05:17:23.559Z,6.10
2023-04-01T05:19:50.801Z,6.10
2023-04-01T05:22:18.086Z,6.10
2023-04-01T05:24:45.410Z,6.20
2023-04-01T05:27:13.313Z,6.20
2023-04-01T05:29:42.130Z,6.20
2023-04-01T05:32:16.168Z,6.10
2023-04-01T05:34:43.753Z,6.20
2023-04-01T05:37:11.563Z,6.20
2023-04-01T05:39:39.916Z,6.20
2023-04-01T05:42:08.803Z,6.20
2023-04-01T05:44:36.987Z,6.20
2023-04-01T05:47:05.837Z,6.20
2023-04-01T05:49:34.858Z,6.20
2023-04-01T05:52:03.207Z,6.20
2023-04-01T05:54:31.403Z,6.20
2023-04-01T05:56:58.509Z,6.20
2023-04-01T05:59:25.935Z,6.10
2023-04-01T06:01:53.162Z,6.10
2023-04-01T06:04:21.372Z,6.20
2023-04-01T06:06:48.620Z,6.20
2023-04-01T06:09:31.376Z,6.20
2023-04-01T06:12:07.818Z,6.20
2023-04-01T06:14:51.886Z,6.20
2023-04-01T06:17:26.591Z,6.20
2023-04-01T06:20:07.482Z,6.20
2023-04-01T06:22:41.091Z,6.20
2023-04-01T06:25:27.288Z,6.30
2023-04-01T06:28:36.814Z,6.30
2023-04-01T06:31:32.507Z,6.30
2023-04-01T06:34:29.001Z,6.30
2023-04-01T06:37:11.267Z,6.30
2023-04-01T06:40:12.839Z,6.30
2023-04-01T06:43:17.280Z,6.30
2023-04-01T06:46:41.904Z,6.30
2023-04-01T06:49:50.984Z,6.30
2023-04-01T06:52:59.384Z,6.30
2023-04-01T06:55:50.221Z,6.30
2023-04-01T06:58:46.818Z,6.30
2023-04-01T07:01:38.899Z,6.30
2023-04-01T07:04:20.898Z,6.30
2023-04-01T07:06:56.516Z,6.30
2023-04-01T07:09:28.949Z,6.30
2023-04-01T07:12:25.194Z,6.30
2023-04-01T07:15:46.322Z,6.30
2023-04-01T07:18:51.074Z,6.30
2023-04-01T07:21:38.897Z,6.30
2023-04-01T07:24:38.884Z,6.30
2023-04-01T07:27:13.841Z,6.40
2023-04-01T07:29:42.666Z,6.40
2023-04-01T07:32:17.323Z,6.40
2023-04-01T07:35:05.571Z,6.40
2023-04-01T07:37:39.734Z,6.50
2023-04-01T07:40:13.310Z,6.50
2023-04-01T07:43:03.136Z,6.50
2023-04-01T07:45:55.184Z,6.50
2023-04-01T07:48:37.760Z,6.50
2023-04-01T07:51:19.576Z,6.50
2023-04-01T07:54:17.859Z,6.50
2023-04-01T07:56:51.865Z,6.50
2023-04-01T07:59:48.782Z,6.60
2023-04-01T08:02:34.270Z,6.60
2023-04-01T08:05:18.082Z,6.60
2023-04-01T08:08:09.853Z,6.60
2023-04-01T08:11:04.067Z,6.60
2023-04-01T08:14:14.077Z,6.60
2023-04-01T08:17:48.534Z,6.60
2023-04-01T08:20:53.397Z,6.60
2023-04-01T08:26:38.179Z,6.60
2023-04-01T08:29:13.126Z,6.60
2023-04-01T08:31:49.251Z,6.60
2023-04-01T08:34:21.416Z,6.60
2023-04-01T08:37:00.069Z,6.60
2023-04-01T08:39:35.294Z,6.60
2023-04-01T08:42:30.577Z,6.70
2023-04-01T08:45:31.871Z,6.60
2023-04-01T08:48:17.519Z,6.60
2023-04-01T08:51:12.484Z,6.60
2023-04-01T08:54:02.966Z,6.60
2023-04-01T08:57:08.092Z,6.70
2023-04-01T08:59:50.002Z,6.70
2023-04-01T09:03:36.851Z,6.70
2023-04-01T09:06:13.310Z,6.70
2023-04-01T09:08:52.898Z,6.70
2023-04-01T09:11:26.515Z,6.60
2023-04-01T09:14:25.509Z,6.60
2023-04-01T09:17:24.695Z,6.50
2023-04-01T09:20:01.009Z,6.40
2023-04-01T09:22:54.216Z,6.40
2023-04-01T09:25:42.971Z,6.50
2023-04-01T09:28:19.920Z,6.50
2023-04-01T09:30:59.843Z,6.50
2023-04-01T09:33:44.385Z,6.50
2023-04-01T09:36:39.869Z,6.50
2023-04-01T09:39:22.011Z,6.50
2023-04-01T09:42:12.517Z,6.50
2023-04-01T09:45:01.972Z,6.50
2023-04-01T09:47:51.247Z,6.50
2023-04-01T09:50:18.885Z,6.50
2023-04-01T09:53:05.758Z,6.50
2023-04-01T09:56:00.977Z,6.50
2023-04-01T09:59:02.154Z,6.60
2023-04-01T10:02:35.357Z,6.60
2023-04-01T10:05:32.983Z,6.60
2023-04-01T10:08:40.177Z,6.60
2023-04-01T10:11:46.785Z,6.70
2023-04-01T10:14:34.461Z,6.70
2023-04-01T10:17:21.165Z,6.70
2023-04-01T10:19:57.467Z,6.70
2023-04-01T10:23:04.560Z,6.70
2023-04-01T10:25:47.493Z,6.70
2023-04-01T10:28:49.653Z,6.80
2023-04-01T10:31:56.961Z,6.80
2023-04-01T10:34:43.954Z,6.80
2023-04-01T10:37:50.086Z,6.80
2023-04-01T10:40:44.946Z,6.80
2023-04-01T10:43:47.578Z,6.80
2023-04-01T10:46:30.650Z,6.80
2023-04-01T10:49:26.246Z,6.80
2023-04-01T10:52:12.274Z,6.80
2023-04-01T10:55:29.115Z,6.80
2023-04-01T10:58:26.476Z,6.70
2023-04-01T11:01:35.410Z,6.70
2023-04-01T11:04:43.022Z,6.70
2023-04-01T11:08:09.809Z,6.70
2023-04-01T11:11:04.742Z,6.70
2023-04-01T11:13:52.796Z,6.80
2023-04-01T11:16:42.991Z,6.80
2023-04-01T11:19:34.349Z,6.90
2023-04-01T11:22:21.310Z,6.90
2023-04-01T11:25:11.276Z,6.90
2023-04-01T11:27:59.981Z,6.90
2023-04-01T11:30:59.914Z,7.00
2023-04-01T11:33:42.355Z,7.00
2023-04-01T11:36:42.221Z,7.00
2023-04-01T11:39:22.828Z,7.00
2023-04-01T11:42:40.841Z,7.00
2023-04-01T11:45:51.176Z,7.00
2023-04-01T11:48:59.629Z,7.00
2023-04-01T11:52:07.003Z,7.00
2023-04-01T11:54:49.143Z,7.00
2023-04-01T11:57:41.037Z,7.00
2023-04-01T12:00:39.514Z,7.00
2023-04-01T12:03:31.263Z,7.00
2023-04-01T12:06:33.930Z,7.10
2023-04-01T12:09:09.302Z,7.10
2023-04-01T12:11:53.508Z,7.20
2023-04-01T12:14:38.818Z,7.20
2023-04-01T12:17:22.150Z,7.30
2023-04-01T12:20:01.965Z,7.40
2023-04-01T12:22:58.084Z,7.40
2023-04-01T12:25:43.566Z,7.50
2023-04-01T12:28:19.935Z,7.50
2023-04-01T12:30:53.382Z,7.50
2023-04-01T12:33:38.970Z,7.50
2023-04-01T12:36:19.649Z,7.40
2023-04-01T12:39:24.209Z,7.50
2023-04-01T12:42:01.392Z,7.50
2023-04-01T12:44:50.773Z,7.50
2023-04-01T12:47:53.404Z,7.40
2023-04-01T12:50:52.780Z,7.40
2023-04-01T12:53:49.336Z,7.40
2023-04-01T12:56:45.543Z,7.50
2023-04-01T12:59:40.411Z,7.40
2023-04-01T13:02:41.736Z,7.40
2023-04-01T13:05:45.124Z,7.40
2023-04-01T13:08:34.162Z,7.30
2023-04-01T13:11:27.469Z,7.30
2023-04-01T13:14:21.601Z,7.20
2023-04-01T13:17:06.117Z,7.20
2023-04-01T13:20:04.945Z,7.20
2023-04-01T13:23:07.278Z,7.20
2023-04-01T13:26:14.605Z,7.10
2023-04-01T13:29:13.825Z,7.10
2023-04-01T13:32:05.123Z,7.10
2023-04-01T13:34:51.475Z,7.10
2023-04-01T13:37:34.404Z,7.20
2023-04-01T13:41:02.284Z,7.20
2023-04-01T13:43:38.176Z,7.20
2023-04-01T13:46:17.412Z,7.20
2023-04-01T13:49:43.991Z,7.20
2023-04-01T13:52:41.000Z,7.20
2023-04-01T13:55:26.862Z,7.20
2023-04-01T13:58:13.888Z,7.20
2023-04-01T14:00:56.735Z,7.20
2023-04-01T14:03:30.157Z,7.20
2023-04-01T14:06:51.338Z,7.20
2023-04-01T14:09:49.828Z,7.30
2023-04-01T14:12:27.692Z,7.30
2023-04-01T14:15:06.788Z,7.20
2023-04-01T14:17:55.413Z,7.30
2023-04-01T14:20:41.917Z,7.30
2023-04-01T14:23:27.248Z,7.30
2023-04-01T14:26:26.413Z,7.30
2023-04-01T14:29:18.437Z,7.30
2023-04-01T14:31:58.426Z,7.30
2023-04-01T14:34:41.314Z,7.30
2023-04-01T14:37:33.436Z,7.40
2023-04-01T14:40:40.328Z,7.40
2023-04-01T14:43:45.085Z,7.40
2023-04-01T14:46:39.945Z,7.40
2023-04-01T14:49:22.251Z,7.40
2023-04-01T14:51:51.174Z,7.30
2023-04-01T14:54:34.447Z,7.30
2023-04-01T14:57:24.887Z,7.30
2023-04-01T15:00:02.312Z,7.40
2023-04-01T15:02:57.867Z,7.30
2023-04-01T15:05:28.037Z,7.30
2023-04-01T15:07:59.804Z,7.30
2023-04-01T15:10:48.528Z,7.30
2023-04-01T15:13:21.206Z,7.40
2023-04-01T15:16:33.081Z,7.40
2023-04-01T15:19:32.278Z,7.40
2023-04-01T15:22:18.764Z,7.40
2023-04-01T15:25:12.919Z,7.30
2023-04-01T15:27:50.472Z,7.30
2023-04-01T15:30:26.828Z,7.30
2023-04-01T15:33:18.287Z,7.30
2023-04-01T15:36:10.852Z,7.30
2023-04-01T15:38:49.842Z,7.30
2023-04-01T15:41:21.873Z,7.30
2023-04-01T15:43:51.139Z,7.30
2023-04-01T15:46:31.743Z,7.30
2023-04-01T15:49:15.323Z,7.30
2023-04-01T15:52:04.812Z,7.30
2023-04-01T15:54:54.770Z,7.40
2023-04-01T15:57:34.266Z,7.40
2023-04-01T16:00:12.819Z,7.50
2023-04-01T16:03:15.239Z,7.50
2023-04-01T16:06:22.014Z,7.50
2023-04-01T16:09:08.846Z,7.40
2023-04-01T16:12:16.342Z,7.40
2023-04-01T16:15:04.852Z,7.40
2023-04-01T16:18:09.852Z,7.30
2023-04-01T16:21:06.409Z,7.30
2023-04-01T16:24:00.870Z,7.40
2023-04-01T16:26:57.479Z,7.40
2023-04-01T16:29:33.604Z,7.40
2023-04-01T16:32:34.721Z,7.50
2023-04-01T16:35:12.316Z,7.50
2023-04-01T16:37:49.318Z,7.50
2023-04-01T16:40:35.551Z,7.50
2023-04-01T16:43:26.272Z,7.50
2023-04-01T16:46:16.893Z,7.40
2023-04-01T16:49:13.280Z,7.40
2023-04-01T16:51:52.853Z,7.40
2023-04-01T16:55:01.364Z,7.40
2023-04-01T16:57:47.491Z,7.40
2023-04-01T17:00:26.529Z,7.30
2023-04-01T17:03:13.143Z,7.40
2023-04-01T17:06:02.559Z,7.40
2023-04-01T17:08:54.361Z,7.30
2023-04-01T17:11:39.660Z,7.30
2023-04-01T17:14:25.290Z,7.30
2023-04-01T17:17:13.814Z,7.30
2023-04-01T17:20:17.402Z,7.30
2023-04-01T17:23:01.010Z,7.20
2023-04-01T17:25:34.179Z,7.20
2023-04-01T17:28:35.690Z,7.20
2023-04-01T17:31:34.387Z,7.20
2023-04-01T17:34:18.532Z,7.20
2023-04-01T17:37:10.412Z,7.20
2023-04-01T17:40:01.854Z,7.20
2023-04-01T17:42:43.566Z,7.20
2023-04-01T17:45:29.990Z,7.20
2023-04-01T17:48:04.691Z,7.20
2023-04-01T17:50:50.123Z,7.20
2023-04-01T17:53:35.875Z,7.10
2023-04-01T17:56:11.948Z,7.10
2023-04-01T17:58:46.664Z,7.10
2023-04-01T18:01:32.427Z,7.10
2023-04-01T18:04:31.739Z,7.10
2023-04-01T18:07:36.467Z,7.10
2023-04-01T18:10:18.653Z,7.10
2023-04-01T18:13:09.574Z,7.20
2023-04-01T18:16:18.967Z,7.20
2023-04-01T18:19:22.863Z,7.30
2023-04-01T18:21:50.035Z,7.30
2023-04-01T18:24:36.655Z,7.30
2023-04-01T18:27:03.900Z,7.30
2023-04-01T18:30:03.241Z,7.40
2023-04-01T18:32:50.595Z,7.40
2023-04-01T18:35:49.126Z,7.40
2023-04-01T18:38:19.893Z,7.40
2023-04-01T18:40:52.992Z,7.30
2023-04-01T18:43:39.293Z,7.30
2023-04-01T18:46:25.614Z,7.30
2023-04-01T18:48:56.244Z,7.30
2023-04-01T18:51:39.479Z,7.30
2023-04-01T18:54:27.786Z,7.20
2023-04-01T18:57:14.208Z,7.30
2023-04-01T18:59:55.298Z,7.30
2023-04-01T19:02:39.367Z,7.30
2023-04-01T19:05:24.541Z,7.30
2023-04-01T19:07:54.915Z,7.30
2023-04-01T19:11:20.249Z,7.30
2023-04-01T19:13:53.209Z,7.30
2023-04-01T19:16:30.104Z,7.30
2023-04-01T19:19:18.967Z,7.30
2023-04-01T19:22:07.979Z,7.30
2023-04-01T19:24:44.243Z,7.30
2023-04-01T19:27:30.397Z,7.30
2023-04-01T19:30:03.944Z,7.30
2023-04-01T19:32:58.746Z,7.30
2023-04-01T19:35:53.846Z,7.30
2023-04-01T19:38:40.747Z,7.30
2023-04-01T19:41:38.843Z,7.30
2023-04-01T19:44:18.293Z,7.40
2023-04-01T19:47:03.920Z,7.40
2023-04-01T19:50:01.046Z,7.40
2023-04-01T19:52:34.102Z,7.40
2023-04-01T19:55:09.094Z,7.50
2023-04-01T19:57:39.327Z,7.50
2023-04-01T20:00:06.739Z,7.40
2023-04-01T20:03:00.319Z,7.40
2023-04-01T20:06:15.720Z,7.40
2023-04-01T20:08:46.966Z,7.40
2023-04-01T20:11:37.340Z,7.40
2023-04-01T20:14:07.480Z,7.40
2023-04-01T20:17:03.997Z,7.40
2023-04-01T20:19:44.948Z,7.50
2023-04-01T20:22:26.559Z,7.40
2023-04-01T20:24:57.848Z,7.40
2023-04-01T20:27:31.828Z,7.50
2023-04-01T20:30:24.252Z,7.50
2023-04-01T20:32:51.696Z,7.50
2023-04-01T20:35:37.876Z,7.50
2023-04-01T20:38:23.923Z,7.50
2023-04-01T20:40:54.135Z,7.50
2023-04-01T20:43:37.478Z,7.50
2023-04-01T20:46:47.081Z,7.50
2023-04-01T20:49:33.855Z,7.50
2023-04-01T20:52:22.037Z,7.50
2023-04-01T20:55:23.490Z,7.50
2023-04-01T20:58:39.622Z,7.40
2023-04-01T21:01:09.610Z,7.40
2023-04-01T21:03:53.271Z,7.40
2023-04-01T21:06:50.367Z,7.40
2023-04-01T21:09:54.094Z,7.40
2023-04-01T21:12:38.842Z,7.40
2023-04-01T21:15:16.152Z,7.40
2023-04-01T21:18:11.707Z,7.40
2023-04-01T21:20:58.247Z,7.40
2023-04-01T21:23:48.640Z,7.30
2023-04-01T21:26:34.025Z,7.30
2023-04-01T21:29:28.875Z,7.30
2023-04-01T21:32:33.693Z,7.30
2023-04-01T21:35:09.679Z,7.30
2023-04-01T21:37:45.866Z,7.30
2023-04-01T21:40:23.651Z,7.30
2023-04-01T21:43:29.866Z,7.30
2023-04-01T21:46:34.885Z,7.30
2023-04-01T21:49:11.101Z,7.20
2023-04-01T21:51:59.594Z,7.20
2023-04-01T21:54:45.024Z,7.20
2023-04-01T21:57:45.819Z,7.10
2023-04-01T22:00:26.938Z,7.10
2023-04-01T22:03:27.901Z,7.10
2023-04-01T22:06:11.988Z,7.10
2023-04-01T22:09:02.948Z,7.10
2023-04-01T22:11:57.591Z,7.10
2023-04-01T22:14:53.960Z,7.10
2023-04-01T22:17:39.536Z,7.10
2023-04-01T22:20:24.693Z,7.10
2023-04-01T22:23:20.516Z,7.10
2023-04-01T22:25:50.545Z,7.10
2023-04-01T22:28:41.014Z,7.10
2023-04-01T22:31:11.618Z,7.10
2023-04-01T22:34:12.639Z,7.10
2023-04-01T22:36:55.931Z,7.10
2023-04-01T22:39:44.655Z,7.10
2023-04-01T22:42:22.957Z,7.10
2023-04-01T22:45:39.566Z,7.10
2023-04-01T22:48:06.802Z,7.10
2023-04-01T22:50:55.185Z,7.10
2023-04-01T22:53:49.635Z,7.10
2023-04-01T22:56:23.927Z,7.10
2023-04-01T22:59:04.435Z,7.10
2023-04-01T23:01:38.210Z,7.10
2023-04-01T23:04:07.495Z,7.10
2023-04-01T23:06:42.539Z,7.10
2023-04-01T23:09:24.653Z,7.10
2023-04-01T23:12:04.224Z,7.10
2023-04-01T23:14:36.162Z,7.10
2023-04-01T23:17:36.861Z,7.00
2023-04-01T23:20:23.608Z,7.00
2023-04-01T23:23:02.936Z,7.00
2023-04-01T23:25:58.824Z,7.00
2023-04-01T23:28:41.858Z,7.00
2023-04-01T23:31:32.726Z,7.00
2023-04-01T23:34:15.074Z,7.00
2023-04-01T23:36:51.879Z,7.00
2023-04-01T23:39:41.815Z,7.00
2023-04-01T23:42:20.852Z,7.00
2023-04-01T23:44:51.465Z,6.90
2023-04-01T23:47:32.776Z,6.90
2023-04-01T23:50:05.017Z,6.90
2023-04-01T23:52:37.621Z,6.90
2023-04-01T23:55:26.372Z,6.90
2023-04-01T23:58:28.286Z,6.90
